Etusivu
METAR-TAF:

METAR-TAF

Lentoasemat :

Elk Valley

Sparwood, Brittiläinen Kolumbia, Kanada

Leveyspiiri: 49-45N, Pituuspiiri: 114-53W, korkeus merenpinnasta: 1138 m

Tämänhetkinen sää

Tämä raportti tehtiin 11 tuntia ja 6 minuuttia sitten, kello 00.00 UTC
Tuuli 2 kn eri suunnista
Lämpötila 0°C
Kosteus 55%
Ilmanpaine 1011 hPa
Näkyvyys: 32.2 km
Hajanaisia pilviä 5000 ft:n korkeudessa
Hajanaisia pilviä 8500 ft:n korkeudessa
Hajonneita pilviä 22000 ft:n korkeudessa

METAR: CWSW 170000Z VRB02KT 20SM SCT050 SCT085 BKN220 00/M08 A2986 RMK CU3AC1CC2 LAST STFD OBS/NXT 171400Z SLP153

Aika: 04:06 (11:06 UTC)


TAF: puuttuu

Säähavainnot ja -ennusteet yli 4000 lentoasemalta (METAR- ja TAF-raportit).

Käytössä olevat sääasemat on merkitty karttaan keltaisilla ja punaisilla pisteillä.

Aseta hiiri pisteen päälle nähdäksesi sääaseman nimen.

Klikkaa sitten nähdäksesi säähavainnot ja -ennusteet.

Kartan vaihtaminen: klikkaa mustalla rastilla varustettuja vihreitä pisteitä, niin voit zoomata sisään; viivalla varustettua vihreää pistettä, niin voit zoomata ulos tai vihreitä nuolia, niin pääset viereisille kartoille.


METAR-TAF: